XK457 / F-GRPI 7700 Squawk Report (5th of January, 2021)

Aircraft AT75 Reg No. F-GRPI Age 15 years old
Model ATR 72 Turboprop engines 2 First flight 06-12-05
Registered 18-12-15 Rollout 11-05 Delivered 13-12-05
Construction No. 722 Line No. N/A Series 212A
ADSHEX 3945E8 Airline name Air Corsica Owner N/A
Airfield based Ajaccio~Corse du Sud~F First tracked N/A

Flight history for F-GRPI

Route Flight No Date Playback
Provence (MRS) - Saint Catherine (CLY) - Sud Corse (FSC) XK451 2021-03-02 17:01:00
Sud Corse (FSC) - Saint Catherine (CLY) - Provence (MRS) XK450 2021-03-02 08:02:00
Provence (MRS) - Saint Catherine (CLY) - Sud Corse (FSC) XK451 2021-03-01 16:17:00
Sud Corse (FSC) - Saint Catherine (CLY) - Provence (MRS) XK450 2021-03-01 14:50:00
Provence (MRS) - Sud Corse (FSC) XK457 2021-02-28 18:27:00
Saint Catherine (CLY) - Provence (MRS) XK350 2021-02-28 17:36:00
Provence (MRS) - Saint Catherine (CLY) XK351 2021-02-28 15:10:00
Sud Corse (FSC) - Provence (MRS) XK456 2021-02-28 14:27:00
Campo Dell Oro (AJA) - Cote D Azur (NCE) XK102 2021-02-27 14:39:00
Cote D Azur (NCE) - Sud Corse (FSC) - Campo Dell Oro (AJA) XK101 2021-02-27 14:37:00
Campo Dell Oro (AJA) - Cote D Azur (NCE) XK102 2021-02-27 10:05:00
Provence (MRS) - Campo Dell Oro (AJA) XK151 2021-02-27 09:31:00
Campo Dell Oro (AJA) - Provence (MRS) XK150 2021-02-27 07:57:00
Provence (MRS) - Campo Dell Oro (AJA) XK157 2021-02-27 06:06:00
Campo Dell Oro (AJA) - Provence (MRS) XK156 2021-02-26 20:29:00
Cote D Azur (NCE) - Sud Corse (FSC) - Campo Dell Oro (AJA) XK101 2021-02-26 19:35:00
Campo Dell Oro (AJA) - Cote D Azur (NCE) XK102 2021-02-26 17:04:00
???? N/A 2021-02-26 15:39:00
???? N/A 2021-02-26 12:46:00
Cote D Azur (NCE) - Sud Corse (FSC) - Campo Dell Oro (AJA) XK101 2021-02-26 11:31:00
Time Lat Lon Altitude Heading Speed Vertical Rate
2021-01-05 20:25:26 GMT 41.747040 8.679074 8,050 54 262 -2304
2021-01-05 20:25:25 GMT 41.746262 8.677576 8,100 54 264 -2176
2021-01-05 20:25:15 GMT 41.739075 8.663781 8,450 56 269 -2880
2021-01-05 20:25:05 GMT 41.732529 8.649798 8,925 63 271 -2944
2021-01-05 20:24:53 GMT 41.726868 8.631166 9,500 77 273 -2944
2021-01-05 20:24:45 GMT 41.724701 8.617151 9,900 83 274 -2880
2021-01-05 20:24:33 GMT 41.724106 8.597551 10,450 91 275 -2880
2021-01-05 20:24:24 GMT 41.724335 8.582569 10,875 91 275 -2752
2021-01-05 20:24:15 GMT 41.724537 8.565759 11,375 90 276 -2624
2021-01-05 20:24:04 GMT 41.724747 8.548674 11,775 91 280 -2368
2021-01-05 20:23:53 GMT 41.725235 8.527626 12,250 92 286 -2240
2021-01-05 20:23:44 GMT 41.725616 8.512656 12,675 91 287 -3840
2021-01-05 20:23:34 GMT 41.725937 8.494866 13,325 91 282 -3776
2021-01-05 20:23:21 GMT 41.726074 8.473078 14,125 90 276 -3328
2021-01-05 20:23:14 GMT 41.726074 8.460303 14,500 90 271 -3392
2021-01-05 20:23:04 GMT 41.726120 8.444366 14,950 89 258 -1600
2021-01-05 20:22:54 GMT 41.725842 8.427855 15,175 87 253 -1216
2021-01-05 20:22:44 GMT 41.725143 8.412525 15,375 84 250 -1088
2021-01-05 20:22:33 GMT 41.723515 8.396812 15,575 81 254 -1344
2021-01-05 20:22:23 GMT 41.721680 8.380633 15,775 81 261 -1216
2021-01-05 20:22:13 GMT 41.719757 8.364528 16,000 80 268 -1280
2021-01-05 20:22:03 GMT 41.717422 8.346051 16,225 79 276 -1344
2021-01-05 20:21:53 GMT 41.715275 8.330639 16,425 78 286 -1280
2021-01-05 20:21:43 GMT 41.712570 8.313092 16,650 77 296 -1664
2021-01-05 20:21:30 GMT 41.708542 8.289746 16,925 76 307 -1280
2021-01-05 20:21:23 GMT 41.705917 8.275899 17,075 75 320 -1472
2021-01-05 20:21:12 GMT 41.701542 8.254565 17,525 74 328 -3520
2021-01-05 20:21:02 GMT 41.697536 8.235786 18,075 74 329 -3520
2021-01-05 20:20:52 GMT 41.693619 8.215963 18,575 77 334 -2304
2021-01-05 20:20:43 GMT 41.690834 8.196248 18,950 83 338 -2496
2021-01-05 20:20:32 GMT 41.690048 8.173391 19,400 91 340 -2368
2021-01-05 20:20:21 GMT 41.692417 8.147895 19,900 104 341 -2752
2021-01-05 20:20:12 GMT 41.695442 8.132885 20,200 109 336 -1280
2021-01-05 20:20:01 GMT 41.701447 8.112904 20,425 114 329 -1216
2021-01-05 20:19:52 GMT 41.707870 8.094560 20,650 115 323 -1344
2021-01-05 20:19:42 GMT 41.714157 8.076612 20,900 114 315 -1472
2021-01-05 20:19:32 GMT 41.720116 8.059494 21,025 114 310 0
2021-01-05 20:19:21 GMT 41.726303 8.041680 21,025 114 310 64
2021-01-05 20:19:04 GMT 41.737015 8.010968 21,025 114 308 -64
2021-01-05 20:19:00 GMT 41.739487 8.003915 21,025 114 307 64
2021-01-05 20:18:56 GMT 41.742321 7.995875 21,025 114 307 128
2021-01-05 20:18:49 GMT 41.746044 7.985208 21,025 114 307 0
2021-01-05 20:18:41 GMT 41.750977 7.970956 21,025 114 307 -64
2021-01-05 20:18:35 GMT 41.754425 7.961064 21,025 114 307 0
2021-01-05 20:18:31 GMT 41.756985 7.953654 21,025 114 307 -64
2021-01-05 20:18:21 GMT 41.762833 7.936873 21,025 114 306 0
2021-01-05 20:18:11 GMT 41.768692 7.920019 21,025 114 306 0
2021-01-05 20:18:01 GMT 41.774769 7.902427 21,025 114 305 -64
2021-01-05 20:17:50 GMT 41.781006 7.884563 21,025 114 304 64
2021-01-05 20:17:43 GMT 41.785290 7.872215 21,025 114 304 0
2021-01-05 20:17:40 GMT 41.787048 7.867147 21,025 114 304 0
2021-01-05 20:17:36 GMT 41.789474 7.860156 21,025 115 304 0
2021-01-05 20:17:30 GMT 41.792969 7.850179 21,025 115 304 0
2021-01-05 20:17:25 GMT 41.795998 7.841492 21,025 115 303 64
2021-01-05 20:16:44 GMT 41.820763 7.770975 21,025 115 303 -64
2021-01-05 20:16:41 GMT 41.822571 7.765773 21,000 115 303 0
2021-01-05 20:16:29 GMT 41.829185 7.746894 21,025 115 304 0
2021-01-05 20:16:20 GMT 41.834682 7.731181 21,025 115 304 64
2021-01-05 20:16:09 GMT 41.841202 7.712527 21,025 115 304 -64
2021-01-05 20:16:00 GMT 41.846970 7.695923 21,025 114 305 0
2021-01-05 20:15:48 GMT 41.853722 7.676250 21,025 114 305 64
2021-01-05 20:15:40 GMT 41.858688 7.661965 21,025 114 304 0
2021-01-05 20:15:29 GMT 41.865173 7.642971 21,025 114 304 64
2021-01-05 20:15:17 GMT 41.871964 7.623263 21,025 114 304 -128
2021-01-05 20:15:10 GMT 41.876064 7.611354 21,025 114 303 64
2021-01-05 20:14:59 GMT 41.882904 7.591428 21,025 114 303 0
2021-01-05 20:14:27 GMT 41.901482 7.537388 21,025 114 303 0
2021-01-05 20:14:20 GMT 41.905533 7.525571 21,025 114 302 0
2021-01-05 20:14:11 GMT 41.910919 7.509967 21,025 114 302 0
2021-01-05 20:13:59 GMT 41.917637 7.490504 21,025 114 302 0
2021-01-05 20:13:50 GMT 41.923325 7.473887 21,000 114 302 0
2021-01-05 20:13:40 GMT 41.928818 7.458094 21,025 115 302 -128
2021-01-05 20:13:30 GMT 41.934723 7.441002 21,025 114 301 0
2021-01-05 20:13:18 GMT 41.941795 7.420690 21,025 115 301 0
2021-01-05 20:13:01 GMT 41.951805 7.392074 21,025 115 301 -64
2021-01-05 20:12:57 GMT 41.954136 7.385431 21,025 115 302 0
2021-01-05 20:12:42 GMT 41.963150 7.359529 21,025 115 302 -64
2021-01-05 20:12:40 GMT 41.964706 7.355097 21,025 115 302 64
2021-01-05 20:12:26 GMT 41.972946 7.331252 21,025 114 302 -64
2021-01-05 20:12:17 GMT 41.977615 7.317394 21,025 113 303 0
2021-01-05 20:12:06 GMT 41.983841 7.298480 21,025 112 302 -64
2021-01-05 20:11:42 GMT 42.000500 7.260047 21,025 132 288 -64
2021-01-05 20:11:37 GMT 42.005173 7.253598 21,025 135 285 128
2021-01-05 20:11:28 GMT 42.014786 7.243236 21,025 145 276 -64
2021-01-05 20:11:24 GMT 42.018703 7.239799 21,025 146 275 0
2021-01-05 20:11:13 GMT 42.030487 7.229503 21,025 146 275 -64
2021-01-05 20:11:05 GMT 42.039001 7.222013 21,025 146 274 -64
2021-01-05 20:10:56 GMT 42.048729 7.213483 21,025 147 274 64
2021-01-05 20:10:46 GMT 42.059189 7.204347 21,025 147 274 0
2021-01-05 20:10:35 GMT 42.070560 7.194512 21,025 147 273 0
2021-01-05 20:10:19 GMT 42.087662 7.179753 21,025 147 273 -64
2021-01-05 20:10:15 GMT 42.091881 7.176116 21,025 147 274 0
2021-01-05 20:10:00 GMT 42.107990 7.162256 21,025 147 273 -128
2021-01-05 20:09:54 GMT 42.114647 7.156635 21,025 147 273 64
2021-01-05 20:09:47 GMT 42.121857 7.150477 21,025 147 273 0
2021-01-05 20:09:39 GMT 42.130379 7.143221 21,025 147 273 64
2021-01-05 20:09:37 GMT 42.134491 7.139740 21,025 147 273 0
2021-01-05 20:09:33 GMT 42.136711 7.137856 21,025 147 273 64
2021-01-05 20:09:25 GMT 42.145557 7.130319 21,025 147 273 0
2021-01-05 20:09:15 GMT 42.156822 7.120801 21,025 148 273 0
2021-01-05 20:09:06 GMT 42.166504 7.112753 21,025 148 272 0
2021-01-05 20:08:57 GMT 42.176094 7.104705 21,025 148 271 0
2021-01-05 20:08:54 GMT 42.178375 7.102853 21,025 148 271 0
2021-01-05 20:08:44 GMT 42.190109 7.093173 21,025 148 270 -64
2021-01-05 20:08:36 GMT 42.198719 7.086182 21,025 149 270 64
2021-01-05 20:08:25 GMT 42.210068 7.077068 21,025 149 270 -256
2021-01-05 20:08:14 GMT 42.221832 7.067705 21,025 149 270 64
2021-01-05 20:08:05 GMT 42.231766 7.059902 21,025 149 270 -64
2021-01-05 20:08:01 GMT 42.236240 7.056352 21,025 149 270 -64
2021-01-05 20:07:56 GMT 42.241058 7.052598 21,025 149 269 -64
2021-01-05 20:07:53 GMT 42.244667 7.049837 21,025 150 269 -64
2021-01-05 20:07:44 GMT 42.255512 7.041598 21,025 150 269 0
2021-01-05 20:07:41 GMT 42.257767 7.039927 21,025 150 269 0
2021-01-05 20:07:34 GMT 42.265381 7.034124 21,025 150 269 -64
2021-01-05 20:07:31 GMT 42.269485 7.031063 21,025 150 268 0
2021-01-05 20:07:23 GMT 42.277039 7.025320 21,025 151 268 64
2021-01-05 20:07:16 GMT 42.285168 7.019306 21,025 151 268 64
2021-01-05 20:07:11 GMT 42.289673 7.015957 21,025 151 268 0
2021-01-05 20:07:03 GMT 42.298714 7.009213 21,025 151 267 -192
2021-01-05 20:06:55 GMT 42.307930 7.002379 21,025 151 267 320
2021-01-05 20:06:50 GMT 42.312725 6.998802 21,025 151 267 0
2021-01-05 20:06:43 GMT 42.320343 6.993172 21,025 151 267 192
2021-01-05 20:06:39 GMT 42.324738 6.989924 21,025 151 267 0
2021-01-05 20:06:35 GMT 42.329483 6.986410 21,025 151 266 64
2021-01-05 20:06:28 GMT 42.336594 6.981187 21,025 151 266 -128
2021-01-05 20:06:24 GMT 42.341076 6.977979 21,025 151 265 128
2021-01-05 20:06:14 GMT 42.352062 6.970059 21,025 151 265 0
2021-01-05 20:06:04 GMT 42.363144 6.961961 21,025 151 265 -128
2021-01-05 20:05:55 GMT 42.373711 6.954282 21,025 151 265 0
2021-01-05 20:05:49 GMT 42.378754 6.950600 21,025 151 266 0
2021-01-05 20:05:44 GMT 42.384464 6.946489 21,025 151 266 -64
2021-01-05 20:05:34 GMT 42.395828 6.937929 21,025 148 268 256
2021-01-05 20:05:31 GMT 42.398346 6.935806 21,025 144 269 64
2021-01-05 20:05:24 GMT 42.405762 6.928066 21,025 137 273 -64
2021-01-05 20:05:21 GMT 42.407867 6.925382 21,025 135 273 128
2021-01-05 20:05:14 GMT 42.414349 6.915510 21,000 126 277 -64
2021-01-05 20:05:11 GMT 42.415878 6.912648 21,025 124 279 -128
2021-01-05 20:05:04 GMT 42.421555 6.901224 21,025 123 277 192
2021-01-05 20:05:01 GMT 42.423294 6.897604 21,025 123 277 256
2021-01-05 20:04:54 GMT 42.428513 6.886867 21,025 123 277 -64
2021-01-05 20:04:51 GMT 42.430595 6.882615 21,025 123 277 128
2021-01-05 20:04:46 GMT 42.434227 6.875206 21,025 123 277 128
2021-01-05 20:04:41 GMT 42.437622 6.868203 21,025 123 276 -256
2021-01-05 20:04:31 GMT 42.444748 6.853553 21,025 123 276 0
2021-01-05 20:04:23 GMT 42.450241 6.842311 21,025 123 275 -128
2021-01-05 20:04:20 GMT 42.452431 6.837840 21,025 123 275 64
2021-01-05 20:04:10 GMT 42.459133 6.824107 21,025 123 274 64
2021-01-05 20:04:00 GMT 42.466209 6.809671 21,025 123 274 0
2021-01-05 20:03:53 GMT 42.471050 6.799834 21,025 123 274 -64
2021-01-05 20:03:48 GMT 42.475285 6.791275 21,025 123 274 0
2021-01-05 20:03:39 GMT 42.480965 6.779714 21,025 123 273 256
2021-01-05 20:03:30 GMT 42.487335 6.766704 21,025 123 273 0
2021-01-05 20:03:23 GMT 42.492416 6.756336 21,025 123 270 -128
2021-01-05 20:03:17 GMT 42.496307 6.748227 21,025 123 273 64
2021-01-05 20:03:07 GMT 42.503036 6.734369 21,025 123 273 0
2021-01-05 20:02:45 GMT 42.518188 6.703033 21,025 123 271 64
2021-01-05 20:02:39 GMT 42.522629 6.693868 21,025 123 270 -128
2021-01-05 20:02:36 GMT 42.524353 6.690354 21,025 123 270 -128
2021-01-05 20:02:29 GMT 42.529148 6.680454 21,025 123 270 -128
2021-01-05 20:02:25 GMT 42.531967 6.674694 21,025 123 270 -64
2021-01-05 20:02:14 GMT 42.540089 6.657906 21,025 123 270 0
2021-01-05 20:02:09 GMT 42.543274 6.651285 21,025 123 270 64
2021-01-05 20:02:06 GMT 42.545517 6.646604 21,025 123 270 -64
2021-01-05 20:01:59 GMT 42.550140 6.637115 21,025 123 270 64
2021-01-05 20:01:56 GMT 42.552246 6.632683 21,025 123 270 0
2021-01-05 20:01:49 GMT 42.556915 6.623070 21,025 123 270 -128
2021-01-05 20:01:46 GMT 42.559032 6.618624 21,025 123 269 -192
2021-01-05 20:01:39 GMT 42.563782 6.608776 21,025 123 269 -64
2021-01-05 20:01:36 GMT 42.565971 6.604188 21,025 123 268 0
2021-01-05 20:01:29 GMT 42.570671 6.594416 21,025 123 268 64
2021-01-05 20:01:25 GMT 42.573029 6.589550 21,025 122 268 -128
2021-01-05 20:01:16 GMT 42.579750 6.575573 21,000 123 268 -256
2021-01-05 20:01:08 GMT 42.584545 6.565545 21,025 122 268 64
2021-01-05 20:01:05 GMT 42.586761 6.560960 21,025 123 267 -192
2021-01-05 20:00:58 GMT 42.591476 6.551160 21,025 123 267 -64
2021-01-05 20:00:55 GMT 42.593620 6.546766 21,025 123 267 64
2021-01-05 20:00:45 GMT 42.600281 6.532841 21,025 123 267 -64
2021-01-05 20:00:40 GMT 42.603561 6.526066 21,025 123 267 -64
2021-01-05 20:00:35 GMT 42.607307 6.518278 21,025 123 267 128
2021-01-05 20:00:31 GMT 42.609970 6.512708 21,025 122 266 128
2021-01-05 20:00:23 GMT 42.615280 6.501597 21,025 123 266 64
2021-01-05 20:00:18 GMT 42.618393 6.495167 21,025 123 265 64
2021-01-05 20:00:13 GMT 42.622066 6.487555 21,025 123 265 -128
2021-01-05 20:00:10 GMT 42.623741 6.484105 21,025 123 265 -128
2021-01-05 20:00:03 GMT 42.628784 6.473507 21,025 122 265 64
2021-01-05 20:00:00 GMT 42.630585 6.469798 21,025 122 265 64
2021-01-05 19:59:54 GMT 42.634449 6.461749 21,025 122 265 0
2021-01-05 19:59:50 GMT 42.637241 6.455873 21,025 122 265 -128
2021-01-05 19:59:44 GMT 42.641281 6.447414 21,025 122 265 64
2021-01-05 19:59:40 GMT 42.644073 6.441484 21,025 122 265 0
2021-01-05 19:59:32 GMT 42.649300 6.430515 21,025 122 265 64
2021-01-05 19:59:29 GMT 42.650883 6.427194 21,025 122 265 -64
2021-01-05 19:59:22 GMT 42.655930 6.416640 21,025 122 265 0
2021-01-05 19:59:19 GMT 42.657532 6.413269 21,025 122 265 0
2021-01-05 19:59:12 GMT 42.662659 6.402532 21,025 123 265 64
2021-01-05 19:59:09 GMT 42.664215 6.399286 21,025 123 265 0
2021-01-05 19:59:03 GMT 42.668381 6.390610 21,025 123 265 0
2021-01-05 19:58:59 GMT 42.670944 6.385228 21,025 123 265 -64
2021-01-05 19:58:52 GMT 42.676159 6.374370 21,025 123 265 0
2021-01-05 19:58:49 GMT 42.677856 6.370822 21,025 123 265 0
2021-01-05 19:58:44 GMT 42.684586 6.356741 21,025 123 265 -64
2021-01-05 19:58:39 GMT 42.684586 6.356741 21,025 122 266 0
2021-01-05 19:58:33 GMT 42.688728 6.348054 21,025 122 266 0
2021-01-05 19:58:29 GMT 42.691242 6.342816 21,025 122 267 -64
2021-01-05 19:58:23 GMT 42.695480 6.333868 21,025 122 267 -128
2021-01-05 19:58:19 GMT 42.698177 6.328125 21,025 122 268 -64
2021-01-05 19:58:13 GMT 42.702229 6.319694 21,025 122 267 0
2021-01-05 19:58:09 GMT 42.704956 6.313955 21,025 122 267 -128
2021-01-05 19:58:01 GMT 42.710190 6.302831 21,025 122 267 0
2021-01-05 19:57:58 GMT 42.711777 6.299536 21,025 122 267 64
2021-01-05 19:57:51 GMT 42.717041 6.288362 21,025 122 267 0
2021-01-05 19:57:48 GMT 42.718506 6.285241 21,025 122 267 0
2021-01-05 19:57:40 GMT 42.723770 6.274130 21,025 122 267 64
2021-01-05 19:57:33 GMT 42.729218 6.262582 21,025 122 267 0
2021-01-05 19:57:30 GMT 42.730995 6.258822 21,025 122 267 0
2021-01-05 19:57:20 GMT 42.737423 6.245153 21,025 122 267 -64
2021-01-05 19:57:10 GMT 42.744003 6.231308 21,025 122 266 0
2021-01-05 19:57:00 GMT 42.750690 6.217176 21,025 122 266 -128
2021-01-05 19:56:50 GMT 42.757599 6.202656 21,025 122 265 0
2021-01-05 19:56:40 GMT 42.764236 6.188674 21,025 122 264 0
2021-01-05 19:56:29 GMT 42.771217 6.173933 21,025 122 264 0
2021-01-05 19:56:19 GMT 42.777969 6.159562 21,025 122 263 0
2021-01-05 19:56:09 GMT 42.784424 6.145852 21,025 122 262 -64
2021-01-05 19:56:01 GMT 42.789688 6.134616 21,025 122 261 0
2021-01-05 19:55:58 GMT 42.791336 6.131120 21,025 122 261 64
2021-01-05 19:55:51 GMT 42.796078 6.120982 21,025 122 260 -64
2021-01-05 19:55:48 GMT 42.797745 6.117450 21,025 122 260 0
2021-01-05 19:55:41 GMT 42.802597 6.107088 21,025 122 259 0
2021-01-05 19:55:38 GMT 42.804245 6.103529 21,025 122 258 0
2021-01-05 19:55:31 GMT 42.809204 6.093031 21,025 122 257 0
2021-01-05 19:55:28 GMT 42.810883 6.089428 21,025 122 257 -64
2021-01-05 19:55:18 GMT 42.817211 6.076028 21,025 122 256 0
2021-01-05 19:55:10 GMT 42.822754 6.064257 21,025 122 254 64
2021-01-05 19:55:03 GMT 42.826859 6.055766 21,025 123 254 -128
2021-01-05 19:54:59 GMT 42.829834 6.049443 21,025 123 253 -64
2021-01-05 19:54:53 GMT 42.833496 6.041906 21,025 123 251 0
2021-01-05 19:54:50 GMT 42.835136 6.038557 21,025 123 249 0
2021-01-05 19:54:40 GMT 42.841652 6.025085 21,025 123 246 192
2021-01-05 19:54:30 GMT 42.848007 6.011949 21,025 123 244 64
2021-01-05 19:54:22 GMT 42.852592 6.002393 21,025 123 242 64
2021-01-05 19:54:19 GMT 42.855103 5.997258 21,025 122 240 0
2021-01-05 19:54:12 GMT 42.858856 5.989273 21,025 122 238 0
2021-01-05 19:54:09 GMT 42.860596 5.985633 21,025 122 236 0
2021-01-05 19:54:00 GMT 42.866837 5.971854 21,025 120 233 0
2021-01-05 19:53:52 GMT 42.870163 5.964107 21,025 118 229 64
2021-01-05 19:53:49 GMT 42.871719 5.960275 21,000 118 229 64
2021-01-05 19:53:42 GMT 42.875198 5.951141 21,000 116 225 64
2021-01-05 19:53:39 GMT 42.876709 5.947053 21,000 117 224 192
2021-01-05 19:53:32 GMT 42.879913 5.938430 20,950 116 222 832
2021-01-05 19:53:28 GMT 42.881874 5.933140 20,900 116 222 960
2021-01-05 19:53:21 GMT 42.884712 5.925424 20,775 116 224 1216
2021-01-05 19:53:17 GMT 42.887039 5.919277 20,700 116 226 960
2021-01-05 19:53:11 GMT 42.889648 5.912279 20,625 116 226 832
2021-01-05 19:53:08 GMT 42.891045 5.908421 20,575 116 227 960
2021-01-05 19:53:01 GMT 42.894241 5.899850 20,475 116 228 832
2021-01-05 19:52:58 GMT 42.895653 5.896061 20,425 116 228 576
2021-01-05 19:52:48 GMT 42.900879 5.881901 20,275 116 228 960
2021-01-05 19:52:41 GMT 42.903854 5.873917 20,225 116 228 128
2021-01-05 19:52:37 GMT 42.906052 5.867849 20,225 116 227 128
2021-01-05 19:52:31 GMT 42.908752 5.860631 20,150 116 224 1216
2021-01-05 19:52:28 GMT 42.910172 5.856863 20,075 116 225 1856
2021-01-05 19:52:20 GMT 42.913559 5.847537 19,825 116 233 2048
2021-01-05 19:52:17 GMT 42.915157 5.843288 19,725 116 237 1728
2021-01-05 19:52:08 GMT 42.919811 5.830536 19,400 116 246 2240
2021-01-05 19:51:58 GMT 42.927200 5.810682 19,025 116 257 128
2021-01-05 19:51:48 GMT 42.930405 5.801995 19,025 116 255 -128
2021-01-05 19:51:37 GMT 42.940483 5.774950 19,025 116 248 -192
2021-01-05 19:51:27 GMT 42.941227 5.772858 19,025 116 248 -128
2021-01-05 19:51:18 GMT 42.946426 5.758944 19,025 116 237 64
2021-01-05 19:51:08 GMT 42.952377 5.742848 19,025 116 238 -64
2021-01-05 19:50:57 GMT 42.956867 5.730743 18,950 116 233 0
2021-01-05 19:50:47 GMT 42.961670 5.717681 18,925 116 230 448
2021-01-05 19:50:36 GMT 42.966431 5.704779 18,825 116 228 704
2021-01-05 19:50:26 GMT 42.971008 5.692451 18,700 116 228 1024
2021-01-05 19:50:16 GMT 42.975952 5.679165 18,550 116 228 640
2021-01-05 19:50:05 GMT 42.981491 5.664283 18,450 116 227 576
2021-01-05 19:49:57 GMT 42.988152 5.646253 18,300 116 224 896
2021-01-05 19:49:46 GMT 42.990280 5.640458 18,175 116 229 2176
2021-01-05 19:49:43 GMT 42.991699 5.636689 18,075 116 231 2368
2021-01-05 19:49:36 GMT 42.995178 5.627108 17,800 116 239 1984
2021-01-05 19:49:29 GMT 42.998383 5.618357 17,575 116 246 1984
2021-01-05 19:49:25 GMT 43.000900 5.611459 17,400 116 252 2240
2021-01-05 19:49:15 GMT 43.006401 5.596292 17,075 116 263 1344
2021-01-05 19:49:05 GMT 43.011841 5.581246 17,025 116 264 64
2021-01-05 19:48:54 GMT 43.017197 5.566555 17,025 116 262 -64
2021-01-05 19:48:44 GMT 43.022644 5.551545 17,025 116 258 128
2021-01-05 19:48:35 GMT 43.027302 5.538679 17,025 116 255 -64
2021-01-05 19:48:32 GMT 43.029190 5.533405 17,025 116 254 -64
2021-01-05 19:48:25 GMT 43.032936 5.522984 17,025 116 250 64
2021-01-05 19:48:14 GMT 43.038208 5.508366 17,025 115 246 -128
2021-01-05 19:48:04 GMT 43.043270 5.494145 17,025 115 241 -64
2021-01-05 19:47:54 GMT 43.047958 5.480709 17,025 115 236 0
2021-01-05 19:47:44 GMT 43.052673 5.466976 17,025 114 229 128
2021-01-05 19:47:34 GMT 43.056976 5.453882 17,025 113 223 0
2021-01-05 19:47:23 GMT 43.061188 5.440532 16,875 112 215 192
2021-01-05 19:47:13 GMT 43.065079 5.428140 16,950 113 211 832
2021-01-05 19:47:08 GMT 43.067001 5.422072 16,875 113 210 832
2021-01-05 19:47:03 GMT 43.069012 5.415802 16,775 114 209 960
2021-01-05 19:46:53 GMT 43.073410 5.403421 16,625 117 208 1024
2021-01-05 19:46:42 GMT 43.078583 5.392179 16,475 127 208 1024
2021-01-05 19:46:39 GMT 43.081146 5.388155 16,375 133 207 1024
2021-01-05 19:46:32 GMT 43.085819 5.382581 16,275 144 206 896
2021-01-05 19:46:22 GMT 43.094101 5.374869 16,100 145 205 960
2021-01-05 19:46:12 GMT 43.101196 5.368290 15,950 145 204 1216
2021-01-05 19:46:06 GMT 43.106396 5.363421 15,800 145 204 1152
2021-01-05 19:46:02 GMT 43.109234 5.360805 15,500 145 203 960
2021-01-05 19:45:55 GMT 43.114380 5.355899 15,650 145 204 1152
2021-01-05 19:45:52 GMT 43.116917 5.353546 15,600 145 202 1152
2021-01-05 19:45:42 GMT 43.125000 5.345934 15,375 145 204 1280
2021-01-05 19:45:32 GMT 43.132744 5.338636 15,175 145 203 1024
2021-01-05 19:45:22 GMT 43.140564 5.331371 14,975 146 203 1408
2021-01-05 19:45:11 GMT 43.149036 5.323595 14,750 146 204 1152
2021-01-05 19:45:01 GMT 43.156769 5.316616 14,575 146 203 1088
2021-01-05 19:44:58 GMT 43.159149 5.314508 14,500 146 202 1088
2021-01-05 19:44:52 GMT 43.164139 5.309973 14,250 146 199 1216
2021-01-05 19:44:44 GMT 43.170685 5.304042 14,250 146 199 1216
2021-01-05 19:44:41 GMT 43.172081 5.302800 14,225 146 199 1280
2021-01-05 19:44:31 GMT 43.180435 5.295219 13,975 146 200 1024
2021-01-05 19:44:21 GMT 43.188034 5.288256 13,750 146 197 1216
2021-01-05 19:44:11 GMT 43.195587 5.281358 13,575 146 198 1600
2021-01-05 19:43:59 GMT 43.205410 5.272326 13,250 146 199 1536
2021-01-05 19:43:50 GMT 43.212158 5.266156 13,050 145 200 1408
2021-01-05 19:43:46 GMT 43.214489 5.264021 13,000 145 200 1344
2021-01-05 19:43:40 GMT 43.218960 5.259835 12,850 145 199 1344
2021-01-05 19:43:35 GMT 43.222595 5.256447 12,750 145 199 1216
2021-01-05 19:43:30 GMT 43.226532 5.252742 12,650 145 199 1152
2021-01-05 19:43:26 GMT 43.229851 5.249634 12,575 145 198 1152
2021-01-05 19:43:21 GMT 43.234451 5.245269 12,450 145 196 1280
2021-01-05 19:43:16 GMT 43.237347 5.242506 12,350 145 196 1536
2021-01-05 19:43:10 GMT 43.241909 5.238190 12,200 145 197 1600
2021-01-05 19:43:05 GMT 43.245667 5.234730 12,075 145 198 1536
2021-01-05 19:43:00 GMT 43.249786 5.230897 11,925 146 198 1472
2021-01-05 19:42:55 GMT 43.252941 5.227988 11,825 146 199 1408
2021-01-05 19:42:50 GMT 43.257339 5.223935 11,700 146 199 1344
2021-01-05 19:42:45 GMT 43.260635 5.220933 11,600 146 198 1344
2021-01-05 19:42:40 GMT 43.264893 5.217037 11,475 146 197 1408
2021-01-05 19:42:35 GMT 43.268326 5.213907 11,375 146 197 1344
2021-01-05 19:42:29 GMT 43.272820 5.209743 11,225 145 196 1408
2021-01-05 19:42:25 GMT 43.275925 5.206817 11,150 145 196 1408
2021-01-05 19:42:19 GMT 43.280453 5.202615 11,000 145 194 1344
2021-01-05 19:42:14 GMT 43.283760 5.199541 10,900 145 194 1216
2021-01-05 19:42:10 GMT 43.287853 5.195552 10,775 144 193 1280
2021-01-05 19:42:04 GMT 43.291348 5.191956 10,675 142 192 1408
2021-01-05 19:41:59 GMT 43.294930 5.187574 10,550 134 191 1536
2021-01-05 19:41:54 GMT 43.297394 5.183886 10,450 132 191 1600
2021-01-05 19:41:49 GMT 43.300827 5.178712 10,300 132 191 1536
2021-01-05 19:41:44 GMT 43.303543 5.174691 10,175 132 191 1600
2021-01-05 19:41:39 GMT 43.306961 5.169642 10,025 132 191 1472
2021-01-05 19:41:34 GMT 43.309845 5.165363 9,925 133 190 1408
2021-01-05 19:41:29 GMT 43.312901 5.160958 9,800 133 190 1856
2021-01-05 19:41:24 GMT 43.315834 5.156642 9,650 133 191 1856
2021-01-05 19:41:18 GMT 43.319458 5.151374 9,475 133 192 1600
2021-01-05 19:41:14 GMT 43.321930 5.147749 9,375 133 192 1600
2021-01-05 19:41:08 GMT 43.325500 5.142560 9,225 133 191 1536
2021-01-05 19:41:03 GMT 43.328293 5.138472 9,100 133 191 1472
2021-01-05 19:40:59 GMT 43.331635 5.133617 8,950 132 190 1536
2021-01-05 19:40:52 GMT 43.337807 5.124337 8,800 161 179 1024
2021-01-05 19:40:48 GMT 43.337807 5.124337 8,700 131 188 1472
2021-01-05 19:40:43 GMT 43.340179 5.120610 8,225 161 179 1024
2021-01-05 19:40:38 GMT 43.343346 5.115574 8,425 129 188 1856
2021-01-05 19:40:33 GMT 43.346054 5.111006 8,275 128 188 2112
2021-01-05 19:40:28 GMT 43.348984 5.105768 8,075 126 190 1920
2021-01-05 19:40:23 GMT 43.351257 5.101384 7,950 124 191 1600
2021-01-05 19:40:17 GMT 43.354099 5.095825 7,800 127 191 1216
2021-01-05 19:40:13 GMT 43.356659 5.091509 7,725 133 188 1088
2021-01-05 19:40:07 GMT 43.360058 5.087128 7,625 142 184 1216
2021-01-05 19:40:03 GMT 43.363224 5.084250 7,525 155 181 960
2021-01-05 19:39:57 GMT 43.367741 5.082223 7,425 170 178 1216
2021-01-05 19:39:52 GMT 43.371651 5.081896 7,325 185 175 2048
2021-01-05 19:39:47 GMT 43.376537 5.082877 7,050 193 177 3264
2021-01-05 19:39:42 GMT 43.379654 5.083923 6,850 194 183 3200
2021-01-05 19:39:37 GMT 43.384186 5.085520 6,575 196 191 2176
2021-01-05 19:39:32 GMT 43.388176 5.087062 6,425 197 193 1664
2021-01-05 19:39:26 GMT 43.393528 5.089286 6,250 197 192 1472
2021-01-05 19:39:22 GMT 43.397049 5.090758 6,150 197 191 1536
2021-01-05 19:39:16 GMT 43.402000 5.092817 6,000 198 189 1472
2021-01-05 19:39:12 GMT 43.405289 5.094207 5,925 198 188 1344
2021-01-05 19:39:07 GMT 43.410278 5.096315 5,775 198 186 1664
2021-01-05 19:39:02 GMT 43.413895 5.097912 5,650 198 185 1728
2021-01-05 19:38:57 GMT 43.418015 5.099683 5,500 198 185 1536
2021-01-05 19:38:51 GMT 43.422066 5.101515 5,375 199 184 1408
2021-01-05 19:38:48 GMT 43.426071 5.103277 5,250 198 182 1600
2021-01-05 19:38:45 GMT 43.427673 5.103980 5,200 198 181 1600
2021-01-05 19:38:42 GMT 43.430027 5.105046 5,125 198 181 1664
2021-01-05 19:38:34 GMT 43.437801 5.108381 4,875 198 180 1472
2021-01-05 19:38:31 GMT 43.438499 5.108708 4,850 198 180 1664
2021-01-05 19:38:24 GMT 43.444153 5.111134 4,675 196 178 1856
2021-01-05 19:38:21 GMT 43.446274 5.111978 4,600 197 178 1664
2021-01-05 19:38:11 GMT 43.454498 5.115285 4,275 196 180 2176
2021-01-05 19:38:06 GMT 43.459492 5.117144 4,050 195 182 1984
2021-01-05 19:38:01 GMT 43.462845 5.118256 3,925 193 183 1664
2021-01-05 19:37:51 GMT 43.470978 5.121098 3,675 201 180 1728
2021-01-05 19:37:41 GMT 43.477890 5.126719 3,425 226 172 1216
2021-01-05 19:37:34 GMT 43.481415 5.132915 3,250 244 165 1792
2021-01-05 19:37:30 GMT 43.482468 5.136172 3,150 252 164 2048
2021-01-05 19:37:20 GMT 43.482971 5.146775 2,775 284 165 1792
2021-01-05 19:37:13 GMT 43.480721 5.153111 2,625 307 163 1152
2021-01-05 19:37:10 GMT 43.479465 5.155269 2,575 312 160 1216
2021-01-05 19:37:04 GMT 43.476112 5.160304 2,425 313 157 1536
2021-01-05 19:37:00 GMT 43.474251 5.163051 2,325 313 156 1728
2021-01-05 19:36:50 GMT 43.469330 5.170409 2,100 313 151 1216
2021-01-05 19:36:40 GMT 43.464615 5.177371 1,825 314 147 1664
2021-01-05 19:36:30 GMT 43.459866 5.184043 1,600 315 142 1152
2021-01-05 19:36:20 GMT 43.455460 5.190337 1,450 315 128 1152
2021-01-05 19:36:09 GMT 43.451206 5.196206 1,250 317 119 1280

Making use of Plane Finder data

You are free to use the raw flight data, aircraft information and images provided in this report for your own purposes provided the data is correctly attributed to Plane Finder. We ask that you please credit Plane Finder and link to planefinder.net in close proximity to the content.

Optionally one of the following logos (no smaller then 150x24px) can be used and must link to planefinder.net

Embedding the Plane Finder map

You are welcome to embed the Plane Finder playback map on your website to offer visitors a more interactive experience. We suggest using the following HTML code:

<iframe src="//planefinder.net/data/report/XK457-F-GRPI-7700-squawk-2021-01-05/map" width="800" height="600" seamless="seamless"></iframe>

Where our data comes from

Plane Finder has a global network of data feeds and antenna radars that receive data broadcast directly from aircraft. The primary technologies used are ADS-B and MLAT. We also show feeds from the FAA and a FLARM glider feed.

Click here to find out more about the Plane Finder network.

How we collect our data